Time;durP1;ratioP1;P1;durP2;ratioP2;P2;SDS_P1;SDS_P2;PMS_P1;PMS_P2;Temp;Humidity;BMP_temperature;BMP_pressure;BME280_temperature;BME280_humidity;BME280_pressure;Samples;Min_cycle;Max_cycle;Signal;HPM_P1;HPM_P2
2023/04/27 00:01:11;;;;;;;;;;;;;;;8.81;100.00;96672.41;5052356;28;19917;-67
2023/04/27 00:03:36;;;;;;;;;;;;;;;8.83;100.00;96661.94;5052030;28;19924;-72
2023/04/27 00:06:02;;;;;;;;;;;;;;;8.34;100.00;96665.84;5031411;28;19921;-68
2023/04/27 00:08:27;;;;;;;;;;;;;;;8.03;100.00;96666.59;5042188;28;20625;-69
2023/04/27 00:10:53;;;;;;;;;;;;;;;7.95;100.00;96668.34;5043970;28;20282;-69
2023/04/27 00:13:18;;;;;;;;;;;;;;;7.93;100.00;96667.91;5038973;28;19917;-68
2023/04/27 00:15:44;;;;;;;;;;;;;;;8.02;100.00;96662.31;5044810;28;19917;-70
2023/04/27 00:18:09;;;;;;;;;;;;;;;8.00;100.00;96664.59;5032066;28;19921;-69
2023/04/27 00:20:35;;;;;;;;;;;;;;;8.04;100.00;96663.53;5043403;28;19970;-69
2023/04/27 00:23:00;;;;;;;;;;;;;;;8.11;100.00;96657.47;5043385;28;20331;-69
2023/04/27 00:25:25;;;;;;;;;;;;;;;8.26;100.00;96655.09;5038916;28;20449;-66
2023/04/27 00:27:50;;;;;;;;;;;;;;;8.35;100.00;96653.75;5041287;28;19916;-68
2023/04/27 00:30:16;;;;;;;;;;;;;;;8.29;100.00;96651.66;5037542;28;20332;-68
2023/04/27 00:32:41;;;;;;;;;;;;;;;8.27;100.00;96651.22;5045112;28;19917;-70
2023/04/27 00:35:07;;;;;;;;;;;;;;;8.09;100.00;96648.84;5041023;28;20017;-69
2023/04/27 00:37:32;;;;;;;;;;;;;;;7.84;100.00;96643.53;5025878;28;20531;-70
2023/04/27 00:39:57;;;;;;;;;;;;;;;7.70;100.00;96639.66;5047790;28;19928;-68
2023/04/27 00:42:23;;;;;;;;;;;;;;;7.75;100.00;96642.91;5041259;28;20079;-68
2023/04/27 00:44:49;;;;;;;;;;;;;;;7.84;100.00;96650.94;5046768;28;19974;-70
2023/04/27 00:47:16;;;;;;;;;;;;;;;7.94;100.00;96655.06;5046063;28;19921;-67
2023/04/27 00:49:41;;;;;;;;;;;;;;;8.14;100.00;96645.06;5055874;28;19916;-69
2023/04/27 00:52:06;;;;;;;;;;;;;;;8.25;100.00;96646.13;5051949;28;19991;-67
2023/04/27 00:54:32;;;;;;;;;;;;;;;7.92;100.00;96639.06;5055548;28;19925;-68
2023/04/27 00:56:58;;;;;;;;;;;;;;;7.83;100.00;96644.69;5053095;28;19923;-69
2023/04/27 00:59:24;;;;;;;;;;;;;;;7.78;100.00;96644.94;5041312;28;20333;-67
2023/04/27 01:01:49;;;;;;;;;;;;;;;7.64;100.00;96655.47;5049690;28;19928;-68
2023/04/27 01:04:18;;;;;;;;;;;;;;;7.76;100.00;96652.69;5045959;28;19916;-69
2023/04/27 01:06:43;;;;;;;;;;;;;;;8.06;100.00;96660.44;5055448;28;19917;-68
2023/04/27 01:09:09;;;;;;;;;;;;;;;8.40;100.00;96658.16;5047064;28;19942;-70
2023/04/27 01:11:35;;;;;;;;;;;;;;;8.56;100.00;96658.19;5050763;28;20015;-68
2023/04/27 01:14:04;;;;;;;;;;;;;;;8.53;100.00;96664.34;5031158;28;20390;-70
2023/04/27 01:16:34;;;;;;;;;;;;;;;8.66;100.00;96662.31;5042100;28;19924;-69
2023/04/27 01:18:59;;;;;;;;;;;;;;;8.67;100.00;96667.41;5046829;28;19921;-69
2023/04/27 01:21:25;;;;;;;;;;;;;;;8.57;100.00;96670.69;5023626;28;20004;-68
2023/04/27 01:23:50;;;;;;;;;;;;;;;8.48;100.00;96673.63;5045459;28;19970;-70
2023/04/27 01:26:15;;;;;;;;;;;;;;;8.44;100.00;96669.22;5042337;28;19917;-69
2023/04/27 01:28:41;;;;;;;;;;;;;;;8.53;100.00;96673.31;5048965;28;19980;-68
2023/04/27 01:31:06;;;;;;;;;;;;;;;8.67;100.00;96672.88;5040973;28;20297;-69
2023/04/27 01:33:32;;;;;;;;;;;;;;;8.63;100.00;96665.75;5044265;28;19994;-68
2023/04/27 01:35:57;;;;;;;;;;;;;;;8.63;100.00;96677.47;5026374;28;19921;-70
2023/04/27 01:38:23;;;;;;;;;;;;;;;8.50;100.00;96665.06;5039801;28;20437;-68
2023/04/27 01:40:48;;;;;;;;;;;;;;;8.31;100.00;96663.03;5044997;28;20047;-70
2023/04/27 01:43:14;;;;;;;;;;;;;;;8.13;100.00;96665.31;5039578;28;19940;-70
2023/04/27 01:45:39;;;;;;;;;;;;;;;7.95;100.00;96673.03;5044497;28;19964;-69
2023/04/27 01:48:05;;;;;;;;;;;;;;;7.65;100.00;96668.75;5040019;28;20019;-69
2023/04/27 01:50:30;;;;;;;;;;;;;;;7.57;100.00;96674.34;5044994;28;19917;-71
2023/04/27 01:52:55;;;;;;;;;;;;;;;7.43;100.00;96658.41;5043889;28;19917;-68
2023/04/27 01:55:21;;;;;;;;;;;;;;;7.14;100.00;96665.75;5040739;28;20358;-68
2023/04/27 01:57:46;;;;;;;;;;;;;;;7.20;100.00;96667.13;5045384;28;19917;-69
2023/04/27 02:00:12;;;;;;;;;;;;;;;7.23;100.00;96662.91;5039786;28;20293;-69
2023/04/27 02:02:37;;;;;;;;;;;;;;;7.27;100.00;96656.44;5026222;28;20427;-68
2023/04/27 02:05:03;;;;;;;;;;;;;;;7.35;100.00;96662.88;5041865;28;19916;-69
2023/04/27 02:07:28;;;;;;;;;;;;;;;7.43;100.00;96655.66;5023949;28;19917;-70
2023/04/27 02:09:53;;;;;;;;;;;;;;;7.51;100.00;96660.19;5044811;28;19943;-69
2023/04/27 02:12:19;;;;;;;;;;;;;;;7.56;100.00;96656.41;5039057;28;19929;-69
2023/04/27 02:14:44;;;;;;;;;;;;;;;7.51;100.00;96662.09;5045427;28;19924;-70
2023/04/27 02:17:10;;;;;;;;;;;;;;;7.49;100.00;96657.03;5047091;28;19924;-70
2023/04/27 02:19:35;;;;;;;;;;;;;;;7.43;100.00;96669.31;5051879;28;19963;-69
2023/04/27 02:22:01;;;;;;;;;;;;;;;7.31;100.00;96658.44;5047242;28;19916;-70
2023/04/27 02:24:26;;;;;;;;;;;;;;;6.91;100.00;96668.19;5038909;28;20372;-71
2023/04/27 02:26:51;;;;;;;;;;;;;;;6.88;100.00;96674.34;5042788;28;19960;-69
2023/04/27 02:29:17;;;;;;;;;;;;;;;6.92;100.00;96677.97;5037003;28;19917;-70
2023/04/27 02:31:42;;;;;;;;;;;;;;;6.83;100.00;96672.63;5043764;28;20292;-69
2023/04/27 02:34:08;;;;;;;;;;;;;;;6.78;100.00;96675.59;5038763;28;19921;-70
2023/04/27 02:36:33;;;;;;;;;;;;;;;6.69;100.00;96669.47;5041636;28;20373;-71
2023/04/27 02:38:58;;;;;;;;;;;;;;;6.65;100.00;96671.31;5042498;28;19917;-69
2023/04/27 02:41:26;;;;;;;;;;;;;;;6.62;100.00;96675.47;5038284;28;20114;-70
2023/04/27 02:43:52;;;;;;;;;;;;;;;6.62;100.00;96671.97;5042819;28;19917;-69
2023/04/27 02:46:17;;;;;;;;;;;;;;;6.55;100.00;96680.69;5035532;28;20436;-71
2023/04/27 02:48:42;;;;;;;;;;;;;;;6.58;100.00;96671.09;5038786;28;19924;-69
2023/04/27 02:51:07;;;;;;;;;;;;;;;6.59;100.00;96665.31;5037865;28;19960;-69
2023/04/27 02:53:33;;;;;;;;;;;;;;;6.62;100.00;96672.75;5043445;28;19929;-69
2023/04/27 02:55:58;;;;;;;;;;;;;;;6.82;100.00;96665.59;5043042;28;19979;-69
2023/04/27 02:58:23;;;;;;;;;;;;;;;6.75;100.00;96664.59;5036636;28;20692;-69
2023/04/27 03:00:55;;;;;;;;;;;;;;;6.77;100.00;96667.75;5041682;28;19979;-68
2023/04/27 03:03:21;;;;;;;;;;;;;;;6.91;100.00;96668.19;5039690;28;19917;-70
2023/04/27 03:05:46;;;;;;;;;;;;;;;6.86;100.00;96673.88;5042228;28;19924;-70
2023/04/27 03:08:11;;;;;;;;;;;;;;;6.74;100.00;96673.91;5038236;28;19921;-68
2023/04/27 03:10:36;;;;;;;;;;;;;;;6.74;100.00;96676.63;5042044;28;20419;-69
2023/04/27 03:13:02;;;;;;;;;;;;;;;6.76;100.00;96677.06;5021801;28;19920;-68
2023/04/27 03:15:27;;;;;;;;;;;;;;;6.76;100.00;96680.59;5020862;28;20011;-69
2023/04/27 03:17:52;;;;;;;;;;;;;;;6.80;100.00;96676.03;4977506;28;1858429;-71
2023/04/27 03:20:18;;;;;;;;;;;;;;;6.84;100.00;96681.59;5020322;28;19927;-69
2023/04/27 03:22:44;;;;;;;;;;;;;;;6.98;100.00;96682.03;5042740;28;20432;-69
2023/04/27 03:25:10;;;;;;;;;;;;;;;7.21;100.00;96684.25;5038203;28;20043;-70
2023/04/27 03:27:35;;;;;;;;;;;;;;;7.35;100.00;96681.16;5043094;28;20365;-71
2023/04/27 03:30:01;;;;;;;;;;;;;;;7.44;100.00;96687.25;5026845;28;20408;-69
2023/04/27 03:32:26;;;;;;;;;;;;;;;7.35;100.00;96683.88;5038760;28;19917;-70
2023/04/27 03:34:52;;;;;;;;;;;;;;;7.24;100.00;96686.28;5042930;28;19928;-69
2023/04/27 03:37:17;;;;;;;;;;;;;;;7.11;100.00;96690.16;5037150;28;20113;-69
2023/04/27 03:39:43;;;;;;;;;;;;;;;6.99;100.00;96691.78;5040780;28;19918;-69
2023/04/27 03:42:09;;;;;;;;;;;;;;;7.00;100.00;96695.28;5038391;28;19920;-69
2023/04/27 03:44:35;;;;;;;;;;;;;;;7.00;100.00;96689.84;5042700;28;19917;-70
2023/04/27 03:47:00;;;;;;;;;;;;;;;6.99;100.00;96694.50;5042873;28;19936;-70
2023/04/27 03:49:26;;;;;;;;;;;;;;;7.01;100.00;96694.16;5038729;28;19921;-69
2023/04/27 03:51:52;;;;;;;;;;;;;;;6.84;100.00;96689.75;5024868;28;19917;-73
2023/04/27 03:54:17;;;;;;;;;;;;;;;6.89;100.00;96687.59;5039887;28;19960;-71
2023/04/27 03:56:43;;;;;;;;;;;;;;;6.81;100.00;96693.19;5043923;28;19924;-69
2023/04/27 03:59:08;;;;;;;;;;;;;;;6.81;100.00;96691.25;5038119;28;19924;-70
2023/04/27 04:01:33;;;;;;;;;;;;;;;6.84;100.00;96698.75;5042920;28;19924;-69
2023/04/27 04:03:59;;;;;;;;;;;;;;;6.85;100.00;96697.59;5009180;28;19935;-70
2023/04/27 04:06:24;;;;;;;;;;;;;;;6.85;100.00;96696.81;5038689;28;19924;-70
2023/04/27 04:08:50;;;;;;;;;;;;;;;6.93;100.00;96700.53;5023528;28;19967;-69
2023/04/27 04:11:15;;;;;;;;;;;;;;;6.90;100.00;96707.47;5037984;28;19988;-71
2023/04/27 04:13:41;;;;;;;;;;;;;;;6.90;100.00;96696.56;5047172;28;19921;-69
2023/04/27 04:16:07;;;;;;;;;;;;;;;6.94;100.00;96689.28;5041736;28;20405;-69
2023/04/27 04:18:33;;;;;;;;;;;;;;;7.06;100.00;96696.66;5047403;28;19927;-69
2023/04/27 04:20:58;;;;;;;;;;;;;;;7.13;100.00;96688.69;5046837;28;20011;-68
2023/04/27 04:23:23;;;;;;;;;;;;;;;7.19;100.00;96694.69;5025802;28;20365;-69
2023/04/27 04:25:49;;;;;;;;;;;;;;;7.28;100.00;96696.13;5029194;28;19943;-70
2023/04/27 04:28:15;;;;;;;;;;;;;;;7.45;100.00;96692.34;5042662;28;19917;-68
2023/04/27 04:30:40;;;;;;;;;;;;;;;7.44;100.00;96687.25;5047969;28;19924;-69
2023/04/27 04:33:05;;;;;;;;;;;;;;;7.44;100.00;96692.69;5047385;28;19924;-68
2023/04/27 04:35:34;;;;;;;;;;;;;;;7.63;100.00;96690.13;5052424;28;19921;-70
2023/04/27 04:37:59;;;;;;;;;;;;;;;7.77;100.00;96694.38;5054669;28;19977;-71
2023/04/27 04:40:25;;;;;;;;;;;;;;;7.61;100.00;96689.66;5047067;28;19981;-69
2023/04/27 04:42:51;;;;;;;;;;;;;;;7.37;100.00;96689.78;5047738;28;20344;-69
2023/04/27 04:45:17;;;;;;;;;;;;;;;7.27;100.00;96691.03;5043038;28;19967;-69
2023/04/27 04:47:42;;;;;;;;;;;;;;;7.26;100.00;96695.69;5046436;28;19952;-69
2023/04/27 04:50:09;;;;;;;;;;;;;;;7.39;100.00;96695.66;5042238;28;19917;-69
2023/04/27 04:52:35;;;;;;;;;;;;;;;7.53;100.00;96701.50;5045812;28;19916;-69
2023/04/27 04:55:01;;;;;;;;;;;;;;;7.76;100.00;96703.69;5044475;28;19921;-71
2023/04/27 04:57:26;;;;;;;;;;;;;;;7.92;100.00;96696.31;5042061;28;19917;-69
2023/04/27 04:59:52;;;;;;;;;;;;;;;8.06;100.00;96709.56;5046053;28;19928;-69
2023/04/27 05:02:17;;;;;;;;;;;;;;;8.17;100.00;96704.38;5040813;28;19927;-70
2023/04/27 05:04:42;;;;;;;;;;;;;;;8.38;100.00;96713.09;5049007;28;19928;-68
2023/04/27 05:07:10;;;;;;;;;;;;;;;8.57;100.00;96714.34;5024958;28;19916;-68
2023/04/27 05:09:35;;;;;;;;;;;;;;;8.65;100.00;96704.44;5045683;28;19924;-68
2023/04/27 05:12:00;;;;;;;;;;;;;;;8.70;100.00;96718.59;5046843;28;19917;-69
2023/04/27 05:14:25;;;;;;;;;;;;;;;8.75;100.00;96715.59;5023206;28;20012;-69
2023/04/27 05:16:51;;;;;;;;;;;;;;;8.79;100.00;96718.41;5046407;28;19932;-69
2023/04/27 05:19:17;;;;;;;;;;;;;;;8.88;100.00;96723.69;5040428;28;19921;-68
2023/04/27 05:21:45;;;;;;;;;;;;;;;8.94;100.00;96712.13;5046230;28;19917;-70
2023/04/27 05:24:11;;;;;;;;;;;;;;;8.62;100.00;96705.91;5042629;28;19923;-70
2023/04/27 05:26:37;;;;;;;;;;;;;;;8.23;100.00;96705.72;5044840;28;20424;-69
2023/04/27 05:29:02;;;;;;;;;;;;;;;8.22;100.00;96709.56;5042650;28;19920;-67
2023/04/27 05:31:28;;;;;;;;;;;;;;;8.47;100.00;96712.19;5043937;28;20658;-70
2023/04/27 05:33:53;;;;;;;;;;;;;;;8.76;100.00;96708.19;5028910;28;19925;-69
2023/04/27 05:36:18;;;;;;;;;;;;;;;8.63;100.00;96712.19;5042085;28;19921;-69
2023/04/27 05:38:44;;;;;;;;;;;;;;;8.52;100.00;96706.47;5046588;28;19932;-69
2023/04/27 05:41:09;;;;;;;;;;;;;;;8.65;100.00;96712.63;5041764;28;19924;-69
2023/04/27 05:43:36;;;;;;;;;;;;;;;8.64;100.00;96711.00;5046228;28;19966;-70
2023/04/27 05:46:02;;;;;;;;;;;;;;;8.37;100.00;96706.06;5044464;28;20050;-67
2023/04/27 05:48:27;;;;;;;;;;;;;;;8.35;100.00;96704.81;5042854;28;19948;-69
2023/04/27 05:51:00;;;;;;;;;;;;;;;8.04;100.00;96706.38;5050350;28;19935;-71
2023/04/27 05:53:25;;;;;;;;;;;;;;;8.07;100.00;96704.88;5044232;28;19920;-71
2023/04/27 05:55:50;;;;;;;;;;;;;;;8.11;100.00;96705.78;5053743;28;19924;-68
2023/04/27 05:58:16;;;;;;;;;;;;;;;8.32;100.00;96714.53;5054290;28;19923;-70
2023/04/27 06:00:41;;;;;;;;;;;;;;;8.40;100.00;96710.81;5031904;28;20513;-70
2023/04/27 06:03:06;;;;;;;;;;;;;;;8.60;100.00;96714.44;5041430;28;19917;-70
2023/04/27 06:05:33;;;;;;;;;;;;;;;8.96;100.00;96720.75;5045845;28;19917;-69
2023/04/27 06:07:58;;;;;;;;;;;;;;;9.24;100.00;96722.56;5047711;28;19917;-71
2023/04/27 06:10:23;;;;;;;;;;;;;;;9.24;100.00;96722.56;5042072;28;20415;-70
2023/04/27 06:12:49;;;;;;;;;;;;;;;9.49;100.00;96727.75;5028273;28;19986;-70
2023/04/27 06:15:14;;;;;;;;;;;;;;;9.29;100.00;96737.88;5042941;28;19921;-70
2023/04/27 06:17:40;;;;;;;;;;;;;;;9.63;100.00;96746.41;5045200;28;19990;-69
2023/04/27 06:20:08;;;;;;;;;;;;;;;9.72;100.00;96750.53;5022326;28;20015;-69
2023/04/27 06:22:37;;;;;;;;;;;;;;;10.03;100.00;96745.22;5029661;28;19941;-70
2023/04/27 06:25:03;;;;;;;;;;;;;;;10.20;100.00;96747.50;5046371;28;20392;-68
2023/04/27 06:27:28;;;;;;;;;;;;;;;10.27;100.00;96744.91;4996328;28;19917;-70
2023/04/27 06:29:54;;;;;;;;;;;;;;;10.32;100.00;96749.34;5049076;28;19917;-69
2023/04/27 06:32:19;;;;;;;;;;;;;;;11.07;100.00;96747.84;5040848;28;20023;-68
2023/04/27 06:34:45;;;;;;;;;;;;;;;11.31;100.00;96750.50;5044828;28;20385;-70
2023/04/27 06:37:10;;;;;;;;;;;;;;;11.36;100.00;96750.19;5023831;28;19939;-70
2023/04/27 06:39:36;;;;;;;;;;;;;;;11.39;100.00;96741.22;5049552;28;20338;-70
2023/04/27 06:42:03;;;;;;;;;;;;;;;11.96;100.00;96752.97;5033892;28;19916;-67
2023/04/27 06:44:28;;;;;;;;;;;;;;;11.58;99.57;96752.06;5045536;28;19928;-68
2023/04/27 06:46:54;;;;;;;;;;;;;;;10.34;100.00;96752.50;5049498;28;19916;-69
2023/04/27 06:49:20;;;;;;;;;;;;;;;10.38;100.00;96752.56;5049343;28;20000;-71
2023/04/27 06:51:45;;;;;;;;;;;;;;;10.64;100.00;96754.56;5062983;28;19956;-69
2023/04/27 06:54:11;;;;;;;;;;;;;;;10.86;100.00;96747.50;5030892;28;20398;-70
2023/04/27 06:56:36;;;;;;;;;;;;;;;10.19;100.00;96753.34;5046989;28;19943;-70
2023/04/27 06:59:01;;;;;;;;;;;;;;;11.07;100.00;96753.31;5027933;28;19946;-67
2023/04/27 07:01:27;;;;;;;;;;;;;;;12.05;100.00;96749.94;5011856;28;19921;-70
2023/04/27 07:03:52;;;;;;;;;;;;;;;11.21;100.00;96755.47;5053193;28;19984;-70
2023/04/27 07:06:17;;;;;;;;;;;;;;;10.87;100.00;96763.56;5051953;28;19917;-70
2023/04/27 07:08:43;;;;;;;;;;;;;;;12.52;100.00;96761.41;5036878;28;19931;-68
2023/04/27 07:11:08;;;;;;;;;;;;;;;12.70;94.30;96767.06;5044035;28;20301;-70
2023/04/27 07:13:33;;;;;;;;;;;;;;;13.38;91.04;96768.41;5044866;28;19990;-70
2023/04/27 07:16:00;;;;;;;;;;;;;;;12.26;94.18;96762.31;5047078;28;20019;-69
2023/04/27 07:18:27;;;;;;;;;;;;;;;12.30;98.58;96760.38;5024696;28;19921;-69
2023/04/27 07:20:52;;;;;;;;;;;;;;;12.83;97.00;96771.09;5051683;28;19917;-70
2023/04/27 07:23:17;;;;;;;;;;;;;;;13.61;92.94;96764.59;5041908;28;19932;-70
2023/04/27 07:25:44;;;;;;;;;;;;;;;11.94;94.78;96768.22;5044298;28;19923;-70
2023/04/27 07:28:09;;;;;;;;;;;;;;;13.35;97.31;96766.41;5040456;28;19938;-70
2023/04/27 07:30:35;;;;;;;;;;;;;;;13.75;89.25;96767.41;5030390;28;19980;-70
2023/04/27 07:33:01;;;;;;;;;;;;;;;13.63;86.95;96764.22;5031932;28;19929;-70
2023/04/27 07:35:26;;;;;;;;;;;;;;;14.46;79.52;96771.63;5042960;28;19928;-68
2023/04/27 07:37:52;;;;;;;;;;;;;;;14.58;80.03;96764.97;5030757;28;19916;-72
2023/04/27 07:40:17;;;;;;;;;;;;;;;14.01;79.76;96773.84;5043230;28;19917;-72
2023/04/27 07:42:45;;;;;;;;;;;;;;;13.52;78.39;96770.47;5050066;28;19916;-72
2023/04/27 07:45:10;;;;;;;;;;;;;;;14.56;74.93;96774.78;5041320;28;19920;-71
2023/04/27 07:47:36;;;;;;;;;;;;;;;13.76;77.68;96774.50;5031017;28;19928;-71
2023/04/27 07:50:03;;;;;;;;;;;;;;;14.64;73.31;96768.94;5045641;28;19969;-67
2023/04/27 07:52:28;;;;;;;;;;;;;;;14.84;73.16;96772.09;5022942;28;19917;-70
2023/04/27 07:54:53;;;;;;;;;;;;;;;14.65;73.00;96775.22;5043820;28;20000;-71
2023/04/27 07:57:19;;;;;;;;;;;;;;;14.02;75.75;96771.88;5039557;28;19921;-68
2023/04/27 07:59:44;;;;;;;;;;;;;;;13.76;79.17;96773.72;5044109;28;19916;-71
2023/04/27 08:02:10;;;;;;;;;;;;;;;13.45;82.08;96770.41;5044074;28;19921;-71
2023/04/27 08:04:35;;;;;;;;;;;;;;;13.20;83.75;96781.22;5044942;28;19917;-70
2023/04/27 08:07:00;;;;;;;;;;;;;;;12.30;86.93;96776.84;5045003;28;20370;-70
2023/04/27 08:09:26;;;;;;;;;;;;;;;12.43;91.22;96776.22;5038906;28;19921;-70
2023/04/27 08:11:51;;;;;;;;;;;;;;;13.18;86.54;96773.34;5045192;28;19920;-69
2023/04/27 08:14:16;;;;;;;;;;;;;;;13.92;81.73;96774.19;5022299;28;20468;-70
2023/04/27 08:16:42;;;;;;;;;;;;;;;14.93;75.03;96779.97;5025230;28;19964;-70
2023/04/27 08:19:10;;;;;;;;;;;;;;;15.64;70.63;96783.84;5040619;28;19925;-69
2023/04/27 08:21:36;;;;;;;;;;;;;;;16.00;66.20;96787.31;5026551;28;19917;-70
2023/04/27 08:24:02;;;;;;;;;;;;;;;16.51;64.86;96776.84;5043588;28;20353;-68
2023/04/27 08:26:27;;;;;;;;;;;;;;;16.18;64.54;96778.97;5025304;28;19924;-69
2023/04/27 08:28:55;;;;;;;;;;;;;;;16.82;62.57;96779.81;5047677;28;19932;-71
2023/04/27 08:31:20;;;;;;;;;;;;;;;17.41;59.82;96778.94;5039776;28;19928;-70
2023/04/27 08:33:46;;;;;;;;;;;;;;;18.15;58.25;96775.81;5040556;28;19921;-69
2023/04/27 08:36:11;;;;;;;;;;;;;;;18.77;54.62;96773.00;5040280;28;19917;-70
2023/04/27 08:38:36;;;;;;;;;;;;;;;19.84;52.65;96778.78;5026016;28;19967;-70
2023/04/27 08:41:02;;;;;;;;;;;;;;;20.22;49.62;96781.19;5009574;28;20007;-67
2023/04/27 08:43:31;;;;;;;;;;;;;;;20.31;48.34;96778.66;5040850;28;20419;-70
2023/04/27 08:45:57;;;;;;;;;;;;;;;20.45;47.85;96780.31;5042518;28;20267;-70
2023/04/27 08:48:22;;;;;;;;;;;;;;;20.18;48.71;96777.72;5037841;28;19986;-71
2023/04/27 08:50:49;;;;;;;;;;;;;;;20.10;49.11;96771.53;5046145;28;19962;-72
2023/04/27 08:53:18;;;;;;;;;;;;;;;19.76;49.81;96778.13;5045424;28;19945;-72
2023/04/27 08:55:44;;;;;;;;;;;;;;;19.80;49.59;96776.06;5026157;28;20058;-70
2023/04/27 08:58:09;;;;;;;;;;;;;;;19.20;51.74;96775.91;5047479;28;19921;-70
2023/04/27 09:00:41;;;;;;;;;;;;;;;19.63;48.71;96774.38;5039839;28;20353;-71
2023/04/27 09:03:33;;;;;;;;;;;;;;;18.63;51.23;96766.44;5044180;28;20007;-70
2023/04/27 09:05:59;;;;;;;;;;;;;;;18.13;53.84;96769.88;5054158;28;19917;-71
2023/04/27 09:08:24;;;;;;;;;;;;;;;19.39;49.81;96777.19;5036833;28;19921;-70
2023/04/27 09:10:50;;;;;;;;;;;;;;;19.83;48.24;96778.00;5056703;28;19939;-69
2023/04/27 09:13:16;;;;;;;;;;;;;;;19.71;48.80;96775.03;5040366;28;19955;-68
2023/04/27 09:15:41;;;;;;;;;;;;;;;19.57;49.44;96771.31;5026280;28;19967;-70
2023/04/27 09:18:11;;;;;;;;;;;;;;;20.28;47.61;96771.16;5040284;28;19917;-70
2023/04/27 09:20:41;;;;;;;;;;;;;;;20.20;48.06;96766.94;5028963;28;19970;-69
2023/04/27 09:23:06;;;;;;;;;;;;;;;20.49;46.02;96775.47;5023265;28;20282;-69
2023/04/27 09:25:32;;;;;;;;;;;;;;;20.99;45.14;96762.44;5045118;28;20023;-69
2023/04/27 09:27:58;;;;;;;;;;;;;;;20.45;46.25;96769.19;5045334;28;19917;-70
2023/04/27 09:30:24;;;;;;;;;;;;;;;21.52;43.69;96762.38;5038806;28;20126;-69
2023/04/27 09:32:53;;;;;;;;;;;;;;;20.88;43.37;96762.69;5047664;28;20399;-69
2023/04/27 09:35:22;;;;;;;;;;;;;;;20.02;44.38;96767.31;5042859;28;19921;-70
2023/04/27 09:37:49;;;;;;;;;;;;;;;18.17;48.32;96767.06;5045921;28;19990;-71
2023/04/27 09:40:14;;;;;;;;;;;;;;;17.93;49.93;96758.63;5023459;28;19931;-69
2023/04/27 09:42:40;;;;;;;;;;;;;;;17.87;51.78;96755.53;5028830;28;20142;-70
2023/04/27 09:45:06;;;;;;;;;;;;;;;18.38;51.76;96758.47;5041940;28;19917;-67
2023/04/27 09:47:32;;;;;;;;;;;;;;;18.33;51.34;96759.72;5044234;28;19916;-71
2023/04/27 09:49:58;;;;;;;;;;;;;;;18.37;50.02;96754.13;5027277;28;19921;-69
2023/04/27 09:52:25;;;;;;;;;;;;;;;17.50;51.69;96750.78;5024544;28;20304;-72
2023/04/27 09:54:52;;;;;;;;;;;;;;;16.84;52.79;96763.59;5047560;28;19942;-70
2023/04/27 09:57:39;;;;;;;;;;;;;;;16.97;53.26;96755.59;5043959;28;19962;-69
2023/04/27 10:00:09;;;;;;;;;;;;;;;17.31;51.65;96749.38;5023901;28;19921;-68
2023/04/27 10:02:41;;;;;;;;;;;;;;;17.15;52.21;96752.69;5012349;28;19917;-70
2023/04/27 10:05:12;;;;;;;;;;;;;;;17.26;52.50;96747.06;5041296;28;20388;-69
2023/04/27 10:07:40;;;;;;;;;;;;;;;18.44;50.58;96740.16;5029119;28;20015;-70
2023/04/27 10:10:06;;;;;;;;;;;;;;;19.06;48.69;96748.38;5038504;28;19925;-70
2023/04/27 10:12:33;;;;;;;;;;;;;;;18.78;49.82;96750.38;5044543;28;20056;-70
2023/04/27 10:14:59;;;;;;;;;;;;;;;18.41;49.31;96748.53;5027140;28;20293;-70
2023/04/27 10:17:28;;;;;;;;;;;;;;;18.21;51.48;96751.19;5020862;28;20297;-70
2023/04/27 10:19:54;;;;;;;;;;;;;;;18.34;49.08;96741.09;5044126;28;20007;-70
2023/04/27 10:22:20;;;;;;;;;;;;;;;18.93;49.27;96742.66;5039644;28;19992;-68
2023/04/27 10:24:47;;;;;;;;;;;;;;;19.15;48.00;96742.28;5044067;28;19916;-70
2023/04/27 10:27:15;;;;;;;;;;;;;;;19.54;47.89;96743.59;5038932;28;20000;-71
2023/04/27 10:29:41;;;;;;;;;;;;;;;19.37;47.25;96737.91;5044748;28;19924;-70
2023/04/27 10:32:08;;;;;;;;;;;;;;;19.31;47.61;96738.84;5038837;28;20409;-69
2023/04/27 10:34:35;;;;;;;;;;;;;;;19.57;48.38;96739.94;5043424;28;20437;-71
2023/04/27 10:37:08;;;;;;;;;;;;;;;19.42;48.39;96747.78;5044578;28;19970;-69
2023/04/27 10:39:36;;;;;;;;;;;;;;;19.21;47.38;96738.63;5027089;28;19940;-69
2023/04/27 10:42:01;;;;;;;;;;;;;;;18.89;47.61;96734.38;5024712;28;19920;-69
2023/04/27 10:44:28;;;;;;;;;;;;;;;19.60;46.89;96733.56;5040889;28;19916;-68
2023/04/27 10:46:55;;;;;;;;;;;;;;;19.40;47.14;96737.09;5045397;28;19916;-70
2023/04/27 10:49:21;;;;;;;;;;;;;;;19.36;47.16;96739.16;5021806;28;19921;-70
2023/04/27 10:51:47;;;;;;;;;;;;;;;18.45;49.36;96733.41;5026180;28;19971;-70
2023/04/27 10:54:13;;;;;;;;;;;;;;;18.73;48.41;96736.97;5039121;28;19920;-70
2023/04/27 10:56:39;;;;;;;;;;;;;;;19.18;46.87;96727.56;5044049;28;20255;-70
2023/04/27 10:59:05;;;;;;;;;;;;;;;19.81;45.77;96733.16;5041587;28;19948;-68
2023/04/27 11:01:30;;;;;;;;;;;;;;;19.15;46.39;96740.28;5027677;28;19971;-70
2023/04/27 11:03:59;;;;;;;;;;;;;;;18.63;47.81;96727.59;5045948;28;19946;-70
2023/04/27 11:06:24;;;;;;;;;;;;;;;19.05;46.77;96728.19;5041534;28;20229;-70
2023/04/27 11:08:49;;;;;;;;;;;;;;;18.98;46.99;96722.75;5045429;28;20312;-72
2023/04/27 11:11:18;;;;;;;;;;;;;;;18.88;46.84;96720.91;5040512;28;19921;-71
2023/04/27 11:13:43;;;;;;;;;;;;;;;18.44;48.41;96725.50;5026295;28;19924;-70
2023/04/27 11:16:09;;;;;;;;;;;;;;;18.07;50.63;96722.44;5039961;28;20210;-71
2023/04/27 11:18:36;;;;;;;;;;;;;;;18.13;49.75;96723.56;5027359;28;19933;-71
2023/04/27 11:21:06;;;;;;;;;;;;;;;18.26;49.18;96721.00;5044936;28;19916;-71
2023/04/27 11:23:35;;;;;;;;;;;;;;;18.39;50.39;96717.69;5028539;28;19917;-70
2023/04/27 11:26:22;;;;;;;;;;;;;;;17.89;49.11;96724.66;5048841;28;19939;-69
2023/04/27 11:29:04;;;;;;;;;;;;;;;17.63;50.33;96720.56;5031624;28;19924;-70
2023/04/27 11:31:46;;;;;;;;;;;;;;;17.12;51.83;96717.53;5046153;28;19982;-70
2023/04/27 11:34:15;;;;;;;;;;;;;;;18.40;48.95;96714.50;5041334;28;19921;-70
2023/04/27 11:36:40;;;;;;;;;;;;;;;18.95;46.73;96720.03;5043756;28;19916;-70
2023/04/27 11:39:06;;;;;;;;;;;;;;;18.67;47.08;96722.81;5040001;28;19924;-71
2023/04/27 11:41:32;;;;;;;;;;;;;;;18.44;48.09;96711.63;5026686;28;19967;-69
2023/04/27 11:44:02;;;;;;;;;;;;;;;17.76;50.15;96716.06;5044419;28;20016;-72
2023/04/27 11:46:28;;;;;;;;;;;;;;;17.56;50.67;96722.22;5041033;28;19974;-69
2023/04/27 11:49:00;;;;;;;;;;;;;;;17.45;51.20;96718.78;5046569;28;19928;-70
2023/04/27 11:51:25;;;;;;;;;;;;;;;17.12;51.01;96715.53;5022882;28;20011;-70
2023/04/27 11:53:51;;;;;;;;;;;;;;;17.22;52.27;96707.56;5047925;28;19967;-70
2023/04/27 11:56:16;;;;;;;;;;;;;;;17.66;51.05;96703.91;5021918;28;19917;-70
2023/04/27 11:58:43;;;;;;;;;;;;;;;17.85;50.56;96707.28;5045411;28;19974;-70
2023/04/27 12:01:09;;;;;;;;;;;;;;;18.26;49.45;96714.69;5039437;28;20293;-71
2023/04/27 12:03:35;;;;;;;;;;;;;;;18.58;48.19;96705.09;5042642;28;19939;-71
2023/04/27 12:06:00;;;;;;;;;;;;;;;18.88;47.45;96704.25;5026955;28;20377;-72
2023/04/27 12:08:26;;;;;;;;;;;;;;;18.77;48.42;96709.19;5038580;28;19967;-69
2023/04/27 12:10:51;;;;;;;;;;;;;;;18.45;48.17;96708.44;5047667;28;19928;-70
2023/04/27 12:13:17;;;;;;;;;;;;;;;18.90;48.24;96699.06;5026753;28;19964;-71
2023/04/27 12:15:42;;;;;;;;;;;;;;;18.37;49.01;96701.47;5046440;28;19928;-70
2023/04/27 12:18:07;;;;;;;;;;;;;;;17.76;50.63;96697.47;5039879;28;19992;-70
2023/04/27 12:20:33;;;;;;;;;;;;;;;17.43;53.55;96701.81;5043689;28;20007;-70
2023/04/27 12:22:58;;;;;;;;;;;;;;;17.46;51.70;96695.44;5043956;28;19924;-69
2023/04/27 12:25:24;;;;;;;;;;;;;;;17.89;50.08;96696.94;5039051;28;19917;-69
2023/04/27 12:27:49;;;;;;;;;;;;;;;17.98;48.96;96697.22;5025817;28;20397;-69
2023/04/27 12:30:15;;;;;;;;;;;;;;;17.66;50.32;96692.03;5025532;28;19917;-71
2023/04/27 12:32:40;;;;;;;;;;;;;;;17.21;51.31;96687.38;5048793;28;19963;-73
2023/04/27 12:35:06;;;;;;;;;;;;;;;17.35;50.98;96692.00;5047167;28;20024;-71
2023/04/27 12:37:32;;;;;;;;;;;;;;;17.38;51.17;96683.66;5051566;28;19943;-69
2023/04/27 12:39:57;;;;;;;;;;;;;;;17.65;51.48;96682.97;5048512;28;19921;-69